createdAt,value
2023-04-04T00:06:09.990Z,2.42
2023-04-04T00:16:31.084Z,2.38
2023-04-04T00:26:52.664Z,2.35
2023-04-04T00:37:13.783Z,2.27
2023-04-04T00:47:35.265Z,2.27
2023-04-04T00:57:56.631Z,2.23
2023-04-04T01:08:24.012Z,2.20
2023-04-04T01:18:47.482Z,2.22
2023-04-04T01:29:10.675Z,2.19
2023-04-04T01:39:40.532Z,2.11
2023-04-04T01:50:02.848Z,2.09
2023-04-04T02:00:24.080Z,2.07
2023-04-04T02:10:45.505Z,2.02
2023-04-04T02:21:07.801Z,2.03
2023-04-04T02:31:29.464Z,1.98
2023-04-04T02:41:51.443Z,1.97
2023-04-04T02:52:13.056Z,1.96
2023-04-04T03:02:39.105Z,1.94
2023-04-04T03:13:01.112Z,1.96
2023-04-04T03:23:25.122Z,1.88
2023-04-04T03:33:46.514Z,1.82
2023-04-04T03:44:08.088Z,1.81
2023-04-04T03:54:30.002Z,1.77
2023-04-04T04:04:51.506Z,1.69
2023-04-04T04:15:12.880Z,1.71
2023-04-04T04:25:36.536Z,1.65
2023-04-04T04:36:07.613Z,1.63
2023-04-04T04:46:52.069Z,1.60
2023-04-04T04:57:13.467Z,1.57
2023-04-04T05:07:38.186Z,1.51
2023-04-04T05:18:01.110Z,1.52
2023-04-04T05:28:24.107Z,1.46
2023-04-04T05:38:50.583Z,1.46
2023-04-04T05:49:14.977Z,1.47
2023-04-04T05:59:46.111Z,1.48
2023-04-04T06:10:10.410Z,1.52
2023-04-04T06:20:33.062Z,1.58
2023-04-04T06:30:54.463Z,1.62
2023-04-04T06:41:23.379Z,1.68
2023-04-04T06:51:47.104Z,1.76
2023-04-04T07:02:09.154Z,1.84
2023-04-04T07:12:31.589Z,1.96
2023-04-04T07:22:52.971Z,2.11
2023-04-04T07:33:14.184Z,2.20
2023-04-04T07:43:35.537Z,2.27
2023-04-04T07:53:57.359Z,2.47
2023-04-04T08:04:18.599Z,2.64
2023-04-04T08:14:39.891Z,2.72
2023-04-04T08:25:01.397Z,2.74
2023-04-04T08:35:22.649Z,2.80
2023-04-04T08:45:45.742Z,2.89
2023-04-04T08:56:07.224Z,3.10
2023-04-04T09:06:28.842Z,3.26
2023-04-04T09:16:50.133Z,3.40
2023-04-04T09:27:12.544Z,3.41
2023-04-04T09:37:33.694Z,3.51
2023-04-04T09:47:57.034Z,3.68
2023-04-04T09:58:23.788Z,3.84
2023-04-04T10:08:45.276Z,3.93
2023-04-04T10:19:08.036Z,4.08
2023-04-04T10:29:29.223Z,4.28
2023-04-04T10:39:54.145Z,4.41
2023-04-04T10:50:15.945Z,4.51
2023-04-04T11:00:50.754Z,4.62
2023-04-04T11:11:21.783Z,4.77
2023-04-04T11:21:46.679Z,4.87
2023-04-04T11:32:27.920Z,4.99
2023-04-04T11:42:56.297Z,5.11
2023-04-04T11:53:18.258Z,5.20
2023-04-04T12:03:39.729Z,5.28
2023-04-04T12:14:01.567Z,5.42
2023-04-04T12:24:22.494Z,5.51
2023-04-04T12:34:49.954Z,5.53
2023-04-04T12:45:13.561Z,5.58
2023-04-04T12:55:34.602Z,5.67
2023-04-04T13:05:55.634Z,5.71
2023-04-04T13:16:37.414Z,5.74
2023-04-04T13:26:58.668Z,5.77
2023-04-04T13:37:20.768Z,5.78
2023-04-04T13:47:41.960Z,5.77
2023-04-04T13:58:03.247Z,5.78
2023-04-04T14:08:24.240Z,5.76
2023-04-04T14:18:45.708Z,5.79
2023-04-04T14:29:07.246Z,5.75
2023-04-04T14:39:28.438Z,5.72
2023-04-04T14:49:49.798Z,5.73
2023-04-04T15:00:13.629Z,5.69
2023-04-04T15:10:35.046Z,5.69
2023-04-04T15:20:58.965Z,5.70
2023-04-04T15:31:21.041Z,5.66
2023-04-04T15:41:42.101Z,5.63
2023-04-04T15:52:04.115Z,5.63
2023-04-04T16:02:25.490Z,5.59
2023-04-04T16:12:47.149Z,5.59
2023-04-04T16:23:08.604Z,5.53
2023-04-04T16:33:29.617Z,5.50
2023-04-04T16:43:52.869Z,5.43
2023-04-04T16:54:14.220Z,5.37
2023-04-04T17:04:35.763Z,5.30
2023-04-04T17:14:57.064Z,5.25
2023-04-04T17:25:18.684Z,5.18
2023-04-04T17:35:40.310Z,5.07
2023-04-04T17:46:06.742Z,5.01
2023-04-04T17:56:28.234Z,4.89
2023-04-04T18:06:49.379Z,4.79
2023-04-04T18:17:11.210Z,4.68
2023-04-04T18:27:32.928Z,4.61
2023-04-04T18:37:54.200Z,4.53
2023-04-04T18:48:15.551Z,4.46
2023-04-04T18:58:37.280Z,4.41
2023-04-04T19:09:04.033Z,4.35
2023-04-04T19:19:25.273Z,4.27
2023-04-04T19:29:46.325Z,4.21
2023-04-04T19:40:16.335Z,4.09
2023-04-04T19:50:38.254Z,4.02
2023-04-04T20:00:59.281Z,3.92
2023-04-04T20:11:26.887Z,3.81
2023-04-04T20:21:49.137Z,3.69
2023-04-04T20:32:10.521Z,3.52
2023-04-04T20:42:32.451Z,3.38
2023-04-04T20:52:57.549Z,3.26
2023-04-04T21:03:31.069Z,3.19
2023-04-04T21:13:52.342Z,3.10
2023-04-04T21:24:13.576Z,3.02
2023-04-04T21:34:35.730Z,2.97
2023-04-04T21:44:56.712Z,2.90
2023-04-04T21:55:19.337Z,2.83
2023-04-04T22:05:42.083Z,2.71
2023-04-04T22:16:06.367Z,2.65
2023-04-04T22:26:33.795Z,2.60
2023-04-04T22:36:55.267Z,2.52
2023-04-04T22:47:16.157Z,2.38
2023-04-04T22:57:37.596Z,2.31
2023-04-04T23:08:02.735Z,2.25
2023-04-04T23:18:24.426Z,2.12
2023-04-04T23:28:45.847Z,2.01
2023-04-04T23:39:07.497Z,1.86
2023-04-04T23:49:28.544Z,1.89
2023-04-04T23:59:49.860Z,1.79
